sensor_id;sensor_type;location;lat;lon;timestamp;temperature;humidity
74416;SHT31;62850;42.428;25.618;2022-10-16T00:01:46;11.47;65.90
74416;SHT31;62850;42.428;25.618;2022-10-16T00:04:12;11.44;66.19
74416;SHT31;62850;42.428;25.618;2022-10-16T00:06:38;11.50;65.81
74416;SHT31;62850;42.428;25.618;2022-10-16T00:09:04;11.50;66.17
74416;SHT31;62850;42.428;25.618;2022-10-16T00:11:32;11.46;66.20
74416;SHT31;62850;42.428;25.618;2022-10-16T00:14:04;11.30;66.38
74416;SHT31;62850;42.428;25.618;2022-10-16T00:16:30;11.26;66.70
74416;SHT31;62850;42.428;25.618;2022-10-16T00:18:56;11.16;67.34
74416;SHT31;62850;42.428;25.618;2022-10-16T00:21:25;11.25;66.90
74416;SHT31;62850;42.428;25.618;2022-10-16T00:24:00;11.29;67.06
74416;SHT31;62850;42.428;25.618;2022-10-16T00:26:26;11.20;67.37
74416;SHT31;62850;42.428;25.618;2022-10-16T00:28:52;11.23;67.05
74416;SHT31;62850;42.428;25.618;2022-10-16T00:31:20;11.27;67.23
74416;SHT31;62850;42.428;25.618;2022-10-16T00:33:46;11.32;67.12
74416;SHT31;62850;42.428;25.618;2022-10-16T00:36:14;11.36;66.52
74416;SHT31;62850;42.428;25.618;2022-10-16T00:38:40;11.27;66.33
74416;SHT31;62850;42.428;25.618;2022-10-16T00:41:07;11.32;66.18
74416;SHT31;62850;42.428;25.618;2022-10-16T00:43:56;11.46;65.75
74416;SHT31;62850;42.428;25.618;2022-10-16T00:46:38;11.43;65.73
74416;SHT31;62850;42.428;25.618;2022-10-16T00:49:13;11.37;65.87
74416;SHT31;62850;42.428;25.618;2022-10-16T00:51:40;11.49;65.92
74416;SHT31;62850;42.428;25.618;2022-10-16T00:54:19;11.52;65.96
74416;SHT31;62850;42.428;25.618;2022-10-16T00:56:46;11.49;65.92
74416;SHT31;62850;42.428;25.618;2022-10-16T00:59:20;11.66;64.85
74416;SHT31;62850;42.428;25.618;2022-10-16T01:01:48;11.64;64.76
74416;SHT31;62850;42.428;25.618;2022-10-16T01:04:14;11.64;64.71
74416;SHT31;62850;42.428;25.618;2022-10-16T01:06:46;11.71;64.29
74416;SHT31;62850;42.428;25.618;2022-10-16T01:09:21;11.70;64.34
74416;SHT31;62850;42.428;25.618;2022-10-16T01:14:45;11.64;64.14
74416;SHT31;62850;42.428;25.618;2022-10-16T01:17:18;11.63;64.14
74416;SHT31;62850;42.428;25.618;2022-10-16T01:28:05;11.62;64.27
74416;SHT31;62850;42.428;25.618;2022-10-16T01:30:33;11.62;64.34
74416;SHT31;62850;42.428;25.618;2022-10-16T01:33:18;11.60;64.40
74416;SHT31;62850;42.428;25.618;2022-10-16T01:35:48;11.55;64.61
74416;SHT31;62850;42.428;25.618;2022-10-16T01:38:21;11.56;64.43
74416;SHT31;62850;42.428;25.618;2022-10-16T01:40:56;11.56;64.24
74416;SHT31;62850;42.428;25.618;2022-10-16T01:43:39;11.52;64.13
74416;SHT31;62850;42.428;25.618;2022-10-16T01:46:06;11.55;63.94
74416;SHT31;62850;42.428;25.618;2022-10-16T01:48:34;11.57;63.85
74416;SHT31;62850;42.428;25.618;2022-10-16T01:51:06;11.62;63.81
74416;SHT31;62850;42.428;25.618;2022-10-16T01:53:34;11.60;63.29
74416;SHT31;62850;42.428;25.618;2022-10-16T01:56:00;11.62;63.28
74416;SHT31;62850;42.428;25.618;2022-10-16T01:58:27;11.67;62.93
74416;SHT31;62850;42.428;25.618;2022-10-16T02:00:56;11.81;62.49
74416;SHT31;62850;42.428;25.618;2022-10-16T02:03:22;11.84;62.30
74416;SHT31;62850;42.428;25.618;2022-10-16T02:05:54;11.77;62.09
74416;SHT31;62850;42.428;25.618;2022-10-16T02:08:26;11.74;62.21
74416;SHT31;62850;42.428;25.618;2022-10-16T02:10:55;11.83;61.84
74416;SHT31;62850;42.428;25.618;2022-10-16T02:13:28;11.84;61.71
74416;SHT31;62850;42.428;25.618;2022-10-16T02:15:55;11.78;61.82
74416;SHT31;62850;42.428;25.618;2022-10-16T02:18:20;11.81;61.74
74416;SHT31;62850;42.428;25.618;2022-10-16T02:20:54;11.76;62.17
74416;SHT31;62850;42.428;25.618;2022-10-16T02:23:30;11.74;61.84
74416;SHT31;62850;42.428;25.618;2022-10-16T02:26:00;11.78;61.79
74416;SHT31;62850;42.428;25.618;2022-10-16T02:28:38;11.83;61.53
74416;SHT31;62850;42.428;25.618;2022-10-16T02:31:08;11.80;61.81
74416;SHT31;62850;42.428;25.618;2022-10-16T02:33:35;11.74;61.98
74416;SHT31;62850;42.428;25.618;2022-10-16T02:36:03;11.70;61.85
74416;SHT31;62850;42.428;25.618;2022-10-16T02:38:29;11.70;61.99
74416;SHT31;62850;42.428;25.618;2022-10-16T02:40:56;11.64;62.16
74416;SHT31;62850;42.428;25.618;2022-10-16T02:43:21;11.64;62.08
74416;SHT31;62850;42.428;25.618;2022-10-16T02:45:47;11.70;61.95
74416;SHT31;62850;42.428;25.618;2022-10-16T02:48:12;11.64;62.06
74416;SHT31;62850;42.428;25.618;2022-10-16T02:50:38;11.64;61.96
74416;SHT31;62850;42.428;25.618;2022-10-16T02:53:03;11.63;61.99
74416;SHT31;62850;42.428;25.618;2022-10-16T02:55:29;11.69;61.94
74416;SHT31;62850;42.428;25.618;2022-10-16T02:57:55;11.66;61.99
74416;SHT31;62850;42.428;25.618;2022-10-16T03:00:20;11.64;62.07
74416;SHT31;62850;42.428;25.618;2022-10-16T03:02:46;11.76;61.78
74416;SHT31;62850;42.428;25.618;2022-10-16T03:05:13;11.66;62.03
74416;SHT31;62850;42.428;25.618;2022-10-16T03:07:39;11.67;62.13
74416;SHT31;62850;42.428;25.618;2022-10-16T03:10:05;11.71;61.89
74416;SHT31;62850;42.428;25.618;2022-10-16T03:12:31;11.71;61.83
74416;SHT31;62850;42.428;25.618;2022-10-16T03:14:57;11.73;61.83
74416;SHT31;62850;42.428;25.618;2022-10-16T03:17:23;11.70;62.00
74416;SHT31;62850;42.428;25.618;2022-10-16T03:19:49;11.73;61.89
74416;SHT31;62850;42.428;25.618;2022-10-16T03:22:14;11.76;61.63
74416;SHT31;62850;42.428;25.618;2022-10-16T03:24:40;11.78;61.33
74416;SHT31;62850;42.428;25.618;2022-10-16T03:27:05;11.74;61.95
74416;SHT31;62850;42.428;25.618;2022-10-16T03:29:31;11.78;61.49
74416;SHT31;62850;42.428;25.618;2022-10-16T03:31:58;11.78;61.23
74416;SHT31;62850;42.428;25.618;2022-10-16T03:34:24;11.90;60.98
74416;SHT31;62850;42.428;25.618;2022-10-16T03:36:50;11.81;61.11
74416;SHT31;62850;42.428;25.618;2022-10-16T03:39:15;11.94;60.64
74416;SHT31;62850;42.428;25.618;2022-10-16T03:41:41;11.81;61.03
74416;SHT31;62850;42.428;25.618;2022-10-16T03:44:06;11.86;60.74
74416;SHT31;62850;42.428;25.618;2022-10-16T03:46:32;11.78;60.93
74416;SHT31;62850;42.428;25.618;2022-10-16T03:48:57;11.78;61.03
74416;SHT31;62850;42.428;25.618;2022-10-16T03:51:23;11.78;60.89
74416;SHT31;62850;42.428;25.618;2022-10-16T03:53:49;11.84;60.73
74416;SHT31;62850;42.428;25.618;2022-10-16T03:56:14;11.77;61.03
74416;SHT31;62850;42.428;25.618;2022-10-16T03:58:40;11.77;61.09
74416;SHT31;62850;42.428;25.618;2022-10-16T04:01:05;11.87;60.71
74416;SHT31;62850;42.428;25.618;2022-10-16T04:03:31;11.90;60.61
74416;SHT31;62850;42.428;25.618;2022-10-16T04:05:56;11.80;61.11
74416;SHT31;62850;42.428;25.618;2022-10-16T04:08:22;11.80;61.17
74416;SHT31;62850;42.428;25.618;2022-10-16T04:10:47;11.74;61.10
74416;SHT31;62850;42.428;25.618;2022-10-16T04:13:13;11.69;61.11
74416;SHT31;62850;42.428;25.618;2022-10-16T04:15:38;11.70;61.01
74416;SHT31;62850;42.428;25.618;2022-10-16T04:18:04;11.71;60.96
74416;SHT31;62850;42.428;25.618;2022-10-16T04:20:30;11.74;60.67
74416;SHT31;62850;42.428;25.618;2022-10-16T04:22:55;11.78;60.59
74416;SHT31;62850;42.428;25.618;2022-10-16T04:25:21;11.77;60.48
74416;SHT31;62850;42.428;25.618;2022-10-16T04:27:47;11.78;60.64
74416;SHT31;62850;42.428;25.618;2022-10-16T04:30:12;11.86;60.23
74416;SHT31;62850;42.428;25.618;2022-10-16T04:32:38;11.81;60.31
74416;SHT31;62850;42.428;25.618;2022-10-16T04:35:04;11.76;60.57
74416;SHT31;62850;42.428;25.618;2022-10-16T04:37:30;11.76;60.53
74416;SHT31;62850;42.428;25.618;2022-10-16T04:39:55;11.83;60.42
74416;SHT31;62850;42.428;25.618;2022-10-16T04:42:21;11.90;60.23
74416;SHT31;62850;42.428;25.618;2022-10-16T04:44:47;11.90;59.93
74416;SHT31;62850;42.428;25.618;2022-10-16T04:47:13;11.84;60.12
74416;SHT31;62850;42.428;25.618;2022-10-16T04:49:38;11.80;60.22
74416;SHT31;62850;42.428;25.618;2022-10-16T04:52:04;11.84;60.18
74416;SHT31;62850;42.428;25.618;2022-10-16T04:54:29;11.84;60.21
74416;SHT31;62850;42.428;25.618;2022-10-16T04:56:55;11.86;60.07
74416;SHT31;62850;42.428;25.618;2022-10-16T04:59:21;11.88;59.81
74416;SHT31;62850;42.428;25.618;2022-10-16T05:01:47;11.83;59.98
74416;SHT31;62850;42.428;25.618;2022-10-16T05:04:13;11.80;59.99
74416;SHT31;62850;42.428;25.618;2022-10-16T05:06:40;11.81;59.82
74416;SHT31;62850;42.428;25.618;2022-10-16T05:09:06;11.83;59.80
74416;SHT31;62850;42.428;25.618;2022-10-16T05:11:31;11.97;59.46
74416;SHT31;62850;42.428;25.618;2022-10-16T05:13:57;11.95;59.43
74416;SHT31;62850;42.428;25.618;2022-10-16T05:16:23;11.87;59.55
74416;SHT31;62850;42.428;25.618;2022-10-16T05:18:48;11.93;59.48
74416;SHT31;62850;42.428;25.618;2022-10-16T05:21:14;11.93;59.24
74416;SHT31;62850;42.428;25.618;2022-10-16T05:23:40;11.97;59.23
74416;SHT31;62850;42.428;25.618;2022-10-16T05:26:05;12.02;58.92
74416;SHT31;62850;42.428;25.618;2022-10-16T05:28:31;12.10;58.95
74416;SHT31;62850;42.428;25.618;2022-10-16T05:30:56;12.08;58.95
74416;SHT31;62850;42.428;25.618;2022-10-16T05:33:24;12.15;58.82
74416;SHT31;62850;42.428;25.618;2022-10-16T05:35:51;12.14;58.84
74416;SHT31;62850;42.428;25.618;2022-10-16T05:38:17;12.20;58.82
74416;SHT31;62850;42.428;25.618;2022-10-16T05:40:43;12.31;58.61
74416;SHT31;62850;42.428;25.618;2022-10-16T05:43:09;12.36;58.38
74416;SHT31;62850;42.428;25.618;2022-10-16T05:45:34;12.41;58.30
74416;SHT31;62850;42.428;25.618;2022-10-16T05:48:00;12.56;58.16
74416;SHT31;62850;42.428;25.618;2022-10-16T05:50:26;12.63;58.35
74416;SHT31;62850;42.428;25.618;2022-10-16T05:52:52;12.60;58.86
74416;SHT31;62850;42.428;25.618;2022-10-16T05:55:17;12.42;59.24
74416;SHT31;62850;42.428;25.618;2022-10-16T05:57:43;12.35;60.16
74416;SHT31;62850;42.428;25.618;2022-10-16T06:00:09;12.31;60.29
74416;SHT31;62850;42.428;25.618;2022-10-16T06:02:35;12.22;60.63
74416;SHT31;62850;42.428;25.618;2022-10-16T06:05:01;12.17;60.96
74416;SHT31;62850;42.428;25.618;2022-10-16T06:07:26;12.21;61.17
74416;SHT31;62850;42.428;25.618;2022-10-16T06:09:52;12.17;61.11
74416;SHT31;62850;42.428;25.618;2022-10-16T06:12:18;12.22;61.07
74416;SHT31;62850;42.428;25.618;2022-10-16T06:14:45;12.25;61.87
74416;SHT31;62850;42.428;25.618;2022-10-16T06:17:13;12.35;61.01
74416;SHT31;62850;42.428;25.618;2022-10-16T06:19:39;12.35;61.49
74416;SHT31;62850;42.428;25.618;2022-10-16T06:22:05;12.34;61.60
74416;SHT31;62850;42.428;25.618;2022-10-16T06:24:31;12.42;61.63
74416;SHT31;62850;42.428;25.618;2022-10-16T06:26:56;12.42;62.67
74416;SHT31;62850;42.428;25.618;2022-10-16T06:29:22;12.52;62.13
74416;SHT31;62850;42.428;25.618;2022-10-16T06:31:48;12.63;61.49
74416;SHT31;62850;42.428;25.618;2022-10-16T06:34:13;12.79;61.02
74416;SHT31;62850;42.428;25.618;2022-10-16T06:36:39;12.84;61.10
74416;SHT31;62850;42.428;25.618;2022-10-16T06:39:05;12.97;60.67
74416;SHT31;62850;42.428;25.618;2022-10-16T06:41:33;13.00;60.75
74416;SHT31;62850;42.428;25.618;2022-10-16T06:43:58;13.08;60.19
74416;SHT31;62850;42.428;25.618;2022-10-16T06:46:25;13.17;59.99
74416;SHT31;62850;42.428;25.618;2022-10-16T06:48:52;13.27;59.03
74416;SHT31;62850;42.428;25.618;2022-10-16T06:51:19;13.40;58.74
74416;SHT31;62850;42.428;25.618;2022-10-16T06:53:48;13.45;59.36
74416;SHT31;62850;42.428;25.618;2022-10-16T06:56:21;13.57;58.80
74416;SHT31;62850;42.428;25.618;2022-10-16T06:58:47;13.68;58.64
74416;SHT31;62850;42.428;25.618;2022-10-16T07:01:14;13.81;58.35
74416;SHT31;62850;42.428;25.618;2022-10-16T07:03:42;13.89;58.17
74416;SHT31;62850;42.428;25.618;2022-10-16T07:06:10;13.98;58.32
74416;SHT31;62850;42.428;25.618;2022-10-16T07:08:38;14.05;58.44
74416;SHT31;62850;42.428;25.618;2022-10-16T07:11:06;14.13;58.14
74416;SHT31;62850;42.428;25.618;2022-10-16T07:13:36;14.22;57.54
74416;SHT31;62850;42.428;25.618;2022-10-16T07:16:09;14.29;57.24
74416;SHT31;62850;42.428;25.618;2022-10-16T07:18:35;14.37;55.79
74416;SHT31;62850;42.428;25.618;2022-10-16T07:24:04;14.53;55.10
74416;SHT31;62850;42.428;25.618;2022-10-16T07:26:33;14.61;55.30
74416;SHT31;62850;42.428;25.618;2022-10-16T07:28:59;14.63;53.56
74416;SHT31;62850;42.428;25.618;2022-10-16T07:31:26;14.67;54.01
74416;SHT31;62850;42.428;25.618;2022-10-16T07:33:53;14.63;51.65
74416;SHT31;62850;42.428;25.618;2022-10-16T07:36:19;14.59;50.43
74416;SHT31;62850;42.428;25.618;2022-10-16T07:38:45;14.68;49.79
74416;SHT31;62850;42.428;25.618;2022-10-16T07:41:15;14.68;49.58
74416;SHT31;62850;42.428;25.618;2022-10-16T07:43:47;14.84;50.07
74416;SHT31;62850;42.428;25.618;2022-10-16T07:46:12;14.88;49.30
74416;SHT31;62850;42.428;25.618;2022-10-16T07:48:38;14.87;48.40
74416;SHT31;62850;42.428;25.618;2022-10-16T07:51:05;14.93;48.83
74416;SHT31;62850;42.428;25.618;2022-10-16T07:53:32;15.05;49.79
74416;SHT31;62850;42.428;25.618;2022-10-16T07:56:06;15.15;47.44
74416;SHT31;62850;42.428;25.618;2022-10-16T07:58:33;15.18;46.03
74416;SHT31;62850;42.428;25.618;2022-10-16T08:00:59;15.28;46.54
74416;SHT31;62850;42.428;25.618;2022-10-16T08:03:25;15.39;46.75
74416;SHT31;62850;42.428;25.618;2022-10-16T08:05:51;15.42;47.13
74416;SHT31;62850;42.428;25.618;2022-10-16T08:08:17;15.54;47.07
74416;SHT31;62850;42.428;25.618;2022-10-16T08:10:43;15.56;45.76
74416;SHT31;62850;42.428;25.618;2022-10-16T08:13:09;15.57;45.24
74416;SHT31;62850;42.428;25.618;2022-10-16T08:15:35;15.63;45.50
74416;SHT31;62850;42.428;25.618;2022-10-16T08:18:03;15.71;45.41
74416;SHT31;62850;42.428;25.618;2022-10-16T08:20:30;15.76;44.97
74416;SHT31;62850;42.428;25.618;2022-10-16T08:22:56;15.77;44.88
74416;SHT31;62850;42.428;25.618;2022-10-16T08:25:22;15.74;44.95
74416;SHT31;62850;42.428;25.618;2022-10-16T08:27:49;15.74;46.09
74416;SHT31;62850;42.428;25.618;2022-10-16T08:30:16;15.73;44.61
74416;SHT31;62850;42.428;25.618;2022-10-16T08:32:42;15.86;44.53
74416;SHT31;62850;42.428;25.618;2022-10-16T08:35:09;15.91;43.91
74416;SHT31;62850;42.428;25.618;2022-10-16T08:37:35;16.01;44.45
74416;SHT31;62850;42.428;25.618;2022-10-16T08:40:01;16.10;43.84
74416;SHT31;62850;42.428;25.618;2022-10-16T08:45:39;16.19;43.07
74416;SHT31;62850;42.428;25.618;2022-10-16T08:48:31;16.24;43.10
74416;SHT31;62850;42.428;25.618;2022-10-16T08:51:02;16.19;42.13
74416;SHT31;62850;42.428;25.618;2022-10-16T08:53:36;16.25;41.98
74416;SHT31;62850;42.428;25.618;2022-10-16T08:56:04;16.22;41.43
74416;SHT31;62850;42.428;25.618;2022-10-16T08:58:30;16.04;41.73
74416;SHT31;62850;42.428;25.618;2022-10-16T09:01:01;16.10;41.89
74416;SHT31;62850;42.428;25.618;2022-10-16T09:03:49;16.24;41.60
74416;SHT31;62850;42.428;25.618;2022-10-16T09:06:49;16.26;41.28
74416;SHT31;62850;42.428;25.618;2022-10-16T09:12:37;16.42;41.13
74416;SHT31;62850;42.428;25.618;2022-10-16T09:23:13;16.56;40.72
74416;SHT31;62850;42.428;25.618;2022-10-16T09:25:43;16.55;40.16
74416;SHT31;62850;42.428;25.618;2022-10-16T09:28:10;16.45;40.90
74416;SHT31;62850;42.428;25.618;2022-10-16T09:30:37;16.51;41.82
74416;SHT31;62850;42.428;25.618;2022-10-16T09:33:04;16.53;41.28
74416;SHT31;62850;42.428;25.618;2022-10-16T09:35:39;16.72;41.71
74416;SHT31;62850;42.428;25.618;2022-10-16T09:38:06;16.77;41.85
74416;SHT31;62850;42.428;25.618;2022-10-16T09:40:38;16.77;41.52
74416;SHT31;62850;42.428;25.618;2022-10-16T09:45:43;16.91;41.27
74416;SHT31;62850;42.428;25.618;2022-10-16T09:48:19;17.02;43.16
74416;SHT31;62850;42.428;25.618;2022-10-16T09:50:55;17.03;41.94
74416;SHT31;62850;42.428;25.618;2022-10-16T09:53:21;17.02;41.94
74416;SHT31;62850;42.428;25.618;2022-10-16T09:55:52;17.02;42.20
74416;SHT31;62850;42.428;25.618;2022-10-16T09:58:21;17.08;41.70
74416;SHT31;62850;42.428;25.618;2022-10-16T10:00:51;17.08;41.56
74416;SHT31;62850;42.428;25.618;2022-10-16T10:03:37;17.13;41.55
74416;SHT31;62850;42.428;25.618;2022-10-16T10:06:22;17.20;41.85
74416;SHT31;62850;42.428;25.618;2022-10-16T10:11:49;17.23;42.17
74416;SHT31;62850;42.428;25.618;2022-10-16T10:14:35;17.34;41.69
74416;SHT31;62850;42.428;25.618;2022-10-16T10:22:27;17.49;40.80
74416;SHT31;62850;42.428;25.618;2022-10-16T10:27:45;17.69;40.34
74416;SHT31;62850;42.428;25.618;2022-10-16T10:36:41;17.92;41.60
74416;SHT31;62850;42.428;25.618;2022-10-16T10:39:13;17.79;37.87
74416;SHT31;62850;42.428;25.618;2022-10-16T10:55:58;18.12;37.18
74416;SHT31;62850;42.428;25.618;2022-10-16T11:01:12;18.12;36.59
74416;SHT31;62850;42.428;25.618;2022-10-16T11:03:57;18.26;36.84
74416;SHT31;62850;42.428;25.618;2022-10-16T11:06:40;18.33;38.15
74416;SHT31;62850;42.428;25.618;2022-10-16T11:09:16;18.43;38.79
74416;SHT31;62850;42.428;25.618;2022-10-16T11:11:45;18.48;39.81
74416;SHT31;62850;42.428;25.618;2022-10-16T11:14:19;18.58;39.45
74416;SHT31;62850;42.428;25.618;2022-10-16T11:16:56;18.64;39.59
74416;SHT31;62850;42.428;25.618;2022-10-16T11:19:49;18.63;39.19
74416;SHT31;62850;42.428;25.618;2022-10-16T11:27:44;18.65;39.42
74416;SHT31;62850;42.428;25.618;2022-10-16T11:30:26;18.77;38.69
74416;SHT31;62850;42.428;25.618;2022-10-16T11:35:46;18.81;39.03
74416;SHT31;62850;42.428;25.618;2022-10-16T11:38:31;18.83;39.46
74416;SHT31;62850;42.428;25.618;2022-10-16T11:46:32;18.88;40.07
74416;SHT31;62850;42.428;25.618;2022-10-16T11:49:20;18.92;38.78
74416;SHT31;62850;42.428;25.618;2022-10-16T11:52:20;18.99;42.70
74416;SHT31;62850;42.428;25.618;2022-10-16T11:55:14;18.96;37.68
74416;SHT31;62850;42.428;25.618;2022-10-16T11:57:48;18.94;38.92
74416;SHT31;62850;42.428;25.618;2022-10-16T12:00:30;19.01;37.48
74416;SHT31;62850;42.428;25.618;2022-10-16T12:08:21;19.15;37.67
74416;SHT31;62850;42.428;25.618;2022-10-16T12:10:47;19.22;37.31
74416;SHT31;62850;42.428;25.618;2022-10-16T12:13:38;19.33;37.38
74416;SHT31;62850;42.428;25.618;2022-10-16T12:16:23;19.37;37.87
74416;SHT31;62850;42.428;25.618;2022-10-16T12:18:49;19.42;37.33
74416;SHT31;62850;42.428;25.618;2022-10-16T12:21:16;19.59;36.89
74416;SHT31;62850;42.428;25.618;2022-10-16T12:23:53;19.77;36.71
74416;SHT31;62850;42.428;25.618;2022-10-16T12:26:32;19.88;36.51
74416;SHT31;62850;42.428;25.618;2022-10-16T12:29:36;20.14;35.31
74416;SHT31;62850;42.428;25.618;2022-10-16T12:32:05;20.29;35.54
74416;SHT31;62850;42.428;25.618;2022-10-16T12:34:42;20.42;34.34
74416;SHT31;62850;42.428;25.618;2022-10-16T12:39:39;20.63;33.91
74416;SHT31;62850;42.428;25.618;2022-10-16T12:42:19;20.57;34.08
74416;SHT31;62850;42.428;25.618;2022-10-16T12:44:45;20.57;33.73
74416;SHT31;62850;42.428;25.618;2022-10-16T12:47:35;20.55;33.76
74416;SHT31;62850;42.428;25.618;2022-10-16T12:50:01;20.49;34.43
74416;SHT31;62850;42.428;25.618;2022-10-16T12:52:36;20.42;34.06
74416;SHT31;62850;42.428;25.618;2022-10-16T12:55:04;20.36;34.85
74416;SHT31;62850;42.428;25.618;2022-10-16T13:00:44;20.10;34.60
74416;SHT31;62850;42.428;25.618;2022-10-16T13:03:37;20.00;34.54
74416;SHT31;62850;42.428;25.618;2022-10-16T13:20:18;19.78;34.80
74416;SHT31;62850;42.428;25.618;2022-10-16T13:28:32;19.32;34.75
74416;SHT31;62850;42.428;25.618;2022-10-16T13:31:00;19.35;35.13
74416;SHT31;62850;42.428;25.618;2022-10-16T13:33:33;19.30;36.02
74416;SHT31;62850;42.428;25.618;2022-10-16T13:36:00;19.25;36.25
74416;SHT31;62850;42.428;25.618;2022-10-16T13:38:31;19.26;36.65
74416;SHT31;62850;42.428;25.618;2022-10-16T13:43:29;18.88;36.38
74416;SHT31;62850;42.428;25.618;2022-10-16T13:46:03;18.75;36.06
74416;SHT31;62850;42.428;25.618;2022-10-16T13:48:30;18.78;35.76
74416;SHT31;62850;42.428;25.618;2022-10-16T13:51:22;18.74;36.05
74416;SHT31;62850;42.428;25.618;2022-10-16T13:53:48;18.69;36.35
74416;SHT31;62850;42.428;25.618;2022-10-16T13:56:16;18.61;36.80
74416;SHT31;62850;42.428;25.618;2022-10-16T13:58:42;18.64;36.48
74416;SHT31;62850;42.428;25.618;2022-10-16T14:01:24;18.53;37.60
74416;SHT31;62850;42.428;25.618;2022-10-16T14:03:51;18.54;37.14
74416;SHT31;62850;42.428;25.618;2022-10-16T14:06:19;18.63;37.07
74416;SHT31;62850;42.428;25.618;2022-10-16T14:08:58;18.44;36.73
74416;SHT31;62850;42.428;25.618;2022-10-16T14:11:25;18.38;37.05
74416;SHT31;62850;42.428;25.618;2022-10-16T14:13:51;18.43;37.31
74416;SHT31;62850;42.428;25.618;2022-10-16T14:16:23;18.46;37.36
74416;SHT31;62850;42.428;25.618;2022-10-16T14:18:57;18.40;37.51
74416;SHT31;62850;42.428;25.618;2022-10-16T14:21:23;18.41;37.44
74416;SHT31;62850;42.428;25.618;2022-10-16T14:23:49;18.40;37.64
74416;SHT31;62850;42.428;25.618;2022-10-16T14:26:18;18.37;37.59
74416;SHT31;62850;42.428;25.618;2022-10-16T14:28:45;18.38;37.62
74416;SHT31;62850;42.428;25.618;2022-10-16T14:33:52;18.47;37.46
74416;SHT31;62850;42.428;25.618;2022-10-16T14:36:18;18.37;37.63
74416;SHT31;62850;42.428;25.618;2022-10-16T14:39:04;18.14;38.18
74416;SHT31;62850;42.428;25.618;2022-10-16T14:41:31;18.16;38.25
74416;SHT31;62850;42.428;25.618;2022-10-16T14:44:02;18.09;38.28
74416;SHT31;62850;42.428;25.618;2022-10-16T14:46:33;18.00;38.54
74416;SHT31;62850;42.428;25.618;2022-10-16T14:51:35;17.78;38.89
74416;SHT31;62850;42.428;25.618;2022-10-16T14:54:00;17.75;39.06
74416;SHT31;62850;42.428;25.618;2022-10-16T14:56:42;17.65;39.33
74416;SHT31;62850;42.428;25.618;2022-10-16T14:59:58;17.55;39.30
74416;SHT31;62850;42.428;25.618;2022-10-16T15:01:58;17.55;39.43
74416;SHT31;62850;42.428;25.618;2022-10-16T15:04:24;17.54;39.48
74416;SHT31;62850;42.428;25.618;2022-10-16T15:06:49;17.49;39.87
74416;SHT31;62850;42.428;25.618;2022-10-16T15:09:15;17.42;39.88
74416;SHT31;62850;42.428;25.618;2022-10-16T15:11:41;17.28;39.68
74416;SHT31;62850;42.428;25.618;2022-10-16T15:14:13;17.28;39.79
74416;SHT31;62850;42.428;25.618;2022-10-16T15:16:39;17.21;40.03
74416;SHT31;62850;42.428;25.618;2022-10-16T15:19:04;17.20;39.92
74416;SHT31;62850;42.428;25.618;2022-10-16T15:21:32;17.16;40.22
74416;SHT31;62850;42.428;25.618;2022-10-16T15:23:58;17.10;40.21
74416;SHT31;62850;42.428;25.618;2022-10-16T15:26:26;16.97;40.39
74416;SHT31;62850;42.428;25.618;2022-10-16T15:28:52;16.93;40.75
74416;SHT31;62850;42.428;25.618;2022-10-16T15:31:18;16.84;40.92
74416;SHT31;62850;42.428;25.618;2022-10-16T15:33:43;16.77;40.97
74416;SHT31;62850;42.428;25.618;2022-10-16T15:36:09;16.81;41.10
74416;SHT31;62850;42.428;25.618;2022-10-16T15:38:34;16.68;41.40
74416;SHT31;62850;42.428;25.618;2022-10-16T15:41:00;16.56;42.35
74416;SHT31;62850;42.428;25.618;2022-10-16T15:43:26;16.48;42.38
74416;SHT31;62850;42.428;25.618;2022-10-16T15:46:06;16.41;42.72
74416;SHT31;62850;42.428;25.618;2022-10-16T15:48:33;16.42;42.93
74416;SHT31;62850;42.428;25.618;2022-10-16T15:51:00;16.32;43.06
74416;SHT31;62850;42.428;25.618;2022-10-16T15:53:25;16.26;43.20
74416;SHT31;62850;42.428;25.618;2022-10-16T15:55:52;16.36;44.77
74416;SHT31;62850;42.428;25.618;2022-10-16T15:58:17;16.39;43.25
74416;SHT31;62850;42.428;25.618;2022-10-16T16:00:43;16.31;43.28
74416;SHT31;62850;42.428;25.618;2022-10-16T16:03:08;16.12;43.66
74416;SHT31;62850;42.428;25.618;2022-10-16T16:05:37;16.07;43.69
74416;SHT31;62850;42.428;25.618;2022-10-16T16:08:03;16.04;43.82
74416;SHT31;62850;42.428;25.618;2022-10-16T16:10:28;16.01;43.90
74416;SHT31;62850;42.428;25.618;2022-10-16T16:12:54;15.97;44.05
74416;SHT31;62850;42.428;25.618;2022-10-16T16:15:21;16.00;44.15
74416;SHT31;62850;42.428;25.618;2022-10-16T16:17:47;15.91;44.18
74416;SHT31;62850;42.428;25.618;2022-10-16T16:20:13;15.94;44.19
74416;SHT31;62850;42.428;25.618;2022-10-16T16:22:38;15.90;44.10
74416;SHT31;62850;42.428;25.618;2022-10-16T16:25:04;15.96;44.17
74416;SHT31;62850;42.428;25.618;2022-10-16T16:27:30;15.90;45.17
74416;SHT31;62850;42.428;25.618;2022-10-16T16:29:58;15.87;44.44
74416;SHT31;62850;42.428;25.618;2022-10-16T16:32:24;15.86;44.59
74416;SHT31;62850;42.428;25.618;2022-10-16T16:34:50;15.74;44.82
74416;SHT31;62850;42.428;25.618;2022-10-16T16:37:15;15.71;45.21
74416;SHT31;62850;42.428;25.618;2022-10-16T16:39:41;15.69;45.18
74416;SHT31;62850;42.428;25.618;2022-10-16T16:42:06;15.64;45.35
74416;SHT31;62850;42.428;25.618;2022-10-16T16:44:33;15.60;45.46
74416;SHT31;62850;42.428;25.618;2022-10-16T16:47:01;15.59;45.44
74416;SHT31;62850;42.428;25.618;2022-10-16T16:49:27;15.64;45.46
74416;SHT31;62850;42.428;25.618;2022-10-16T16:51:53;15.66;45.40
74416;SHT31;62850;42.428;25.618;2022-10-16T16:54:19;15.57;45.71
74416;SHT31;62850;42.428;25.618;2022-10-16T16:56:44;15.51;45.90
74416;SHT31;62850;42.428;25.618;2022-10-16T16:59:13;15.51;46.05
74416;SHT31;62850;42.428;25.618;2022-10-16T17:01:39;15.56;45.79
74416;SHT31;62850;42.428;25.618;2022-10-16T17:04:05;15.50;45.99
74416;SHT31;62850;42.428;25.618;2022-10-16T17:06:30;15.47;46.33
74416;SHT31;62850;42.428;25.618;2022-10-16T17:08:56;15.44;46.48
74416;SHT31;62850;42.428;25.618;2022-10-16T17:11:24;15.40;46.67
74416;SHT31;62850;42.428;25.618;2022-10-16T17:13:50;15.44;46.64
74416;SHT31;62850;42.428;25.618;2022-10-16T17:16:17;15.43;46.84
74416;SHT31;62850;42.428;25.618;2022-10-16T17:18:43;15.40;47.01
74416;SHT31;62850;42.428;25.618;2022-10-16T17:21:09;15.36;47.12
74416;SHT31;62850;42.428;25.618;2022-10-16T17:23:36;15.36;47.31
74416;SHT31;62850;42.428;25.618;2022-10-16T17:26:16;15.35;46.91